createdAt,value
2022-08-14T00:01:32.138Z,36.34
2022-08-14T00:03:59.397Z,36.56
2022-08-14T00:06:28.727Z,36.78
2022-08-14T00:08:58.900Z,37.17
2022-08-14T00:11:31.370Z,37.00
2022-08-14T00:14:01.425Z,37.05
2022-08-14T00:16:41.547Z,37.12
2022-08-14T00:19:21.216Z,36.86
2022-08-14T00:21:52.280Z,37.46
2022-08-14T00:24:30.701Z,37.64
2022-08-14T00:27:02.240Z,38.13
2022-08-14T00:29:33.217Z,38.12
2022-08-14T00:32:51.948Z,38.84
2022-08-14T00:34:56.459Z,38.43
2022-08-14T00:37:23.287Z,38.61
2022-08-14T00:39:52.853Z,39.04
2022-08-14T00:42:55.243Z,39.43
2022-08-14T00:45:11.504Z,39.21
2022-08-14T00:47:44.729Z,39.56
2022-08-14T00:50:16.734Z,39.50
2022-08-14T00:52:52.345Z,39.01
2022-08-14T00:55:20.264Z,38.96
2022-08-14T00:58:07.517Z,38.81
2022-08-14T01:00:37.587Z,38.85
2022-08-14T01:03:12.110Z,38.94
2022-08-14T01:05:50.777Z,39.37
2022-08-14T01:08:57.697Z,39.64
2022-08-14T01:11:18.841Z,40.00
2022-08-14T01:13:55.760Z,40.03
2022-08-14T01:16:31.031Z,39.45
2022-08-14T01:19:17.489Z,39.64
2022-08-14T01:21:53.502Z,39.45
2022-08-14T01:24:28.912Z,40.59
2022-08-14T01:27:00.020Z,41.35
2022-08-14T01:29:58.087Z,41.63
2022-08-14T01:32:22.847Z,41.74
2022-08-14T01:35:17.567Z,41.33
2022-08-14T01:37:54.527Z,40.89
2022-08-14T01:40:25.657Z,40.73
2022-08-14T01:43:07.967Z,40.56
2022-08-14T01:45:40.797Z,40.19
2022-08-14T01:48:13.531Z,39.41
2022-08-14T01:50:41.925Z,39.67
2022-08-14T01:53:09.583Z,40.01
2022-08-14T01:55:40.228Z,39.99
2022-08-14T01:58:19.961Z,40.20
2022-08-14T02:00:56.373Z,40.05
2022-08-14T02:03:24.707Z,39.91
2022-08-14T02:05:59.843Z,40.14
2022-08-14T02:08:34.773Z,39.95
2022-08-14T02:11:18.934Z,40.09
2022-08-14T02:13:52.298Z,39.30
2022-08-14T02:16:26.444Z,39.16
2022-08-14T02:18:55.541Z,39.78
2022-08-14T02:21:23.303Z,40.24
2022-08-14T02:23:53.672Z,40.60
2022-08-14T02:26:30.641Z,41.17
2022-08-14T02:29:09.824Z,40.24
2022-08-14T02:31:44.047Z,38.90
2022-08-14T02:34:22.509Z,40.42
2022-08-14T02:37:06.166Z,44.96
2022-08-14T02:39:37.172Z,46.79
2022-08-14T02:42:05.868Z,47.65
2022-08-14T02:44:39.559Z,48.29
2022-08-14T02:47:14.946Z,51.04
2022-08-14T02:49:45.970Z,53.98
2022-08-14T02:52:55.441Z,55.40
2022-08-14T02:55:06.885Z,59.95
2022-08-14T02:57:39.910Z,63.79
2022-08-14T03:00:10.525Z,67.48
2022-08-14T03:02:56.206Z,68.44
2022-08-14T03:05:24.059Z,69.71
2022-08-14T03:07:52.970Z,70.24
2022-08-14T03:10:25.566Z,70.57
2022-08-14T03:12:55.223Z,71.63
2022-08-14T03:15:22.206Z,73.29
2022-08-14T03:17:57.119Z,73.12
2022-08-14T03:20:25.707Z,74.82
2022-08-14T03:22:52.742Z,75.50
2022-08-14T03:25:22.148Z,76.38
2022-08-14T03:27:58.344Z,77.26
2022-08-14T03:30:38.948Z,77.66
2022-08-14T03:33:10.290Z,78.07
2022-08-14T03:35:40.345Z,78.64
2022-08-14T03:39:11.817Z,80.05
2022-08-14T03:41:17.767Z,80.25
2022-08-14T03:43:46.711Z,80.98
2022-08-14T03:46:52.573Z,82.04
2022-08-14T03:49:24.273Z,83.45
2022-08-14T03:51:55.556Z,83.92
2022-08-14T03:54:24.538Z,86.00
2022-08-14T03:56:51.332Z,86.53
2022-08-14T03:59:19.696Z,89.65
2022-08-14T04:01:58.161Z,92.55
2022-08-14T04:04:28.270Z,93.95
2022-08-14T04:06:55.087Z,95.64
2022-08-14T04:09:26.821Z,95.25
2022-08-14T04:11:53.849Z,95.50
2022-08-14T04:14:20.658Z,97.04
2022-08-14T04:16:50.125Z,96.36
2022-08-14T04:19:20.556Z,95.86
2022-08-14T04:22:03.454Z,94.99
2022-08-14T04:24:38.492Z,94.66
2022-08-14T04:27:11.586Z,95.83
2022-08-14T04:29:40.509Z,96.37
2022-08-14T04:33:10.370Z,96.09
2022-08-14T04:34:57.355Z,95.50
2022-08-14T04:37:43.504Z,95.29
2022-08-14T04:40:35.353Z,95.58
2022-08-14T04:43:25.219Z,96.39
2022-08-14T04:45:52.254Z,96.52
2022-08-14T04:48:39.645Z,96.76
2022-08-14T04:51:16.210Z,95.97
2022-08-14T04:53:45.771Z,95.73
2022-08-14T04:56:34.291Z,99.23
2022-08-14T04:59:10.195Z,100.00
2022-08-14T05:01:47.869Z,100.00
2022-08-14T05:04:19.872Z,100.00
2022-08-14T05:06:49.130Z,100.00
2022-08-14T05:09:17.252Z,100.00
2022-08-14T05:11:44.736Z,100.00
2022-08-14T05:14:33.803Z,100.00
2022-08-14T05:17:01.625Z,100.00
2022-08-14T05:19:31.967Z,100.00
2022-08-14T05:22:17.836Z,100.00
2022-08-14T05:24:50.628Z,100.00
2022-08-14T05:27:23.978Z,100.00
2022-08-14T05:29:53.292Z,100.00
2022-08-14T05:32:22.132Z,100.00
2022-08-14T05:34:49.699Z,100.00
2022-08-14T05:37:16.316Z,100.00
2022-08-14T05:39:43.493Z,100.00
2022-08-14T05:42:21.551Z,100.00
2022-08-14T05:44:54.193Z,100.00
2022-08-14T05:47:22.183Z,100.00
2022-08-14T05:49:48.876Z,100.00
2022-08-14T05:52:18.110Z,100.00
2022-08-14T05:54:45.205Z,100.00
2022-08-14T05:57:11.935Z,100.00
2022-08-14T05:59:40.045Z,100.00
2022-08-14T06:02:11.123Z,100.00
2022-08-14T06:04:39.092Z,100.00
2022-08-14T06:07:06.633Z,100.00
2022-08-14T06:09:35.877Z,100.00
2022-08-14T06:12:08.748Z,100.00
2022-08-14T06:14:36.954Z,100.00
2022-08-14T06:17:07.257Z,100.00
2022-08-14T06:19:36.775Z,100.00
2022-08-14T06:22:03.962Z,100.00
2022-08-14T06:24:35.003Z,100.00
2022-08-14T06:27:09.975Z,100.00
2022-08-14T06:29:38.711Z,100.00
2022-08-14T06:32:38.051Z,100.00
2022-08-14T06:35:11.156Z,100.00
2022-08-14T06:37:47.715Z,100.00
2022-08-14T06:40:26.743Z,100.00
2022-08-14T06:43:00.275Z,100.00
2022-08-14T06:45:30.353Z,100.00
2022-08-14T06:47:58.810Z,100.00
2022-08-14T06:50:28.701Z,100.00
2022-08-14T06:52:57.208Z,100.00
2022-08-14T06:55:27.685Z,100.00
2022-08-14T06:57:54.803Z,100.00
2022-08-14T07:00:27.047Z,98.94
2022-08-14T07:03:15.306Z,95.23
2022-08-14T07:05:55.318Z,95.69
2022-08-14T07:08:31.378Z,99.21
2022-08-14T07:11:01.214Z,90.06
2022-08-14T07:13:30.535Z,95.60
2022-08-14T07:16:00.706Z,99.64
2022-08-14T07:18:35.061Z,96.84
2022-08-14T07:21:03.525Z,98.74
2022-08-14T07:23:31.329Z,100.00
2022-08-14T07:25:59.888Z,100.00
2022-08-14T07:28:42.923Z,100.00
2022-08-14T07:31:11.996Z,100.00
2022-08-14T07:33:50.174Z,100.00
2022-08-14T07:36:27.161Z,100.00
2022-08-14T07:39:03.339Z,99.88
2022-08-14T07:41:38.943Z,100.00
2022-08-14T07:44:31.903Z,100.00
2022-08-14T07:46:52.344Z,99.84
2022-08-14T07:49:20.965Z,100.00
2022-08-14T07:51:50.974Z,100.00
2022-08-14T07:54:23.572Z,100.00
2022-08-14T07:57:06.428Z,98.58
2022-08-14T07:59:43.741Z,99.11
2022-08-14T08:02:18.937Z,98.90
2022-08-14T08:04:49.350Z,96.63
2022-08-14T08:07:16.742Z,94.53
2022-08-14T08:09:49.328Z,92.69
2022-08-14T08:12:21.708Z,91.34
2022-08-14T08:14:56.765Z,91.96
2022-08-14T08:17:35.066Z,95.20
2022-08-14T08:20:06.686Z,100.00
2022-08-14T08:22:36.155Z,100.00
2022-08-14T08:25:09.751Z,100.00
2022-08-14T08:27:44.528Z,100.00
2022-08-14T08:30:12.381Z,100.00
2022-08-14T08:32:43.754Z,100.00
2022-08-14T08:35:46.141Z,100.00
2022-08-14T08:39:18.417Z,100.00
2022-08-14T08:41:11.060Z,100.00
2022-08-14T08:43:38.968Z,100.00
2022-08-14T08:46:21.161Z,100.00
2022-08-14T08:51:30.662Z,100.00
2022-08-14T08:54:05.770Z,100.00
2022-08-14T08:56:46.582Z,100.00
2022-08-14T08:59:21.049Z,100.00
2022-08-14T09:01:59.812Z,100.00
2022-08-14T09:04:35.653Z,97.25
2022-08-14T09:07:14.514Z,94.78
2022-08-14T09:09:53.987Z,91.48
2022-08-14T09:12:25.542Z,90.02
2022-08-14T09:14:54.351Z,91.32
2022-08-14T09:17:26.141Z,89.70
2022-08-14T09:19:53.691Z,91.16
2022-08-14T09:22:34.669Z,90.94
2022-08-14T09:25:07.557Z,87.05
2022-08-14T09:27:36.546Z,89.24
2022-08-14T09:30:31.655Z,89.53
2022-08-14T09:33:09.230Z,85.78
2022-08-14T09:35:44.429Z,83.89
2022-08-14T09:38:34.558Z,82.13
2022-08-14T09:41:13.566Z,78.18
2022-08-14T09:43:55.137Z,70.80
2022-08-14T09:46:27.705Z,70.57
2022-08-14T09:49:16.530Z,64.64
2022-08-14T09:51:58.348Z,63.23
2022-08-14T09:54:37.480Z,58.11
2022-08-14T09:57:06.649Z,56.43
2022-08-14T09:59:44.827Z,55.34
2022-08-14T10:02:28.029Z,53.31
2022-08-14T10:05:10.104Z,52.02
2022-08-14T10:07:53.906Z,54.85
2022-08-14T10:10:28.488Z,53.75
2022-08-14T10:13:06.099Z,51.08
2022-08-14T10:15:46.715Z,53.00
2022-08-14T10:18:17.433Z,49.81
2022-08-14T10:21:00.713Z,47.57
2022-08-14T10:23:38.545Z,47.60
2022-08-14T10:26:08.645Z,47.67
2022-08-14T10:29:17.856Z,46.73
2022-08-14T10:31:43.261Z,44.13
2022-08-14T10:34:19.860Z,43.20
2022-08-14T10:37:03.990Z,41.39
2022-08-14T10:39:46.758Z,39.77
2022-08-14T10:42:41.743Z,40.38
2022-08-14T10:45:21.714Z,39.94
2022-08-14T10:48:09.481Z,37.79
2022-08-14T10:50:42.487Z,39.30
2022-08-14T10:53:09.392Z,39.11
2022-08-14T10:55:45.132Z,38.87
2022-08-14T10:58:14.821Z,41.21
2022-08-14T11:00:56.643Z,42.30
2022-08-14T11:03:35.724Z,42.11
2022-08-14T11:06:20.238Z,45.02
2022-08-14T11:08:48.312Z,46.51
2022-08-14T11:11:19.274Z,47.07
2022-08-14T11:13:46.642Z,47.08
2022-08-14T11:16:15.986Z,47.17
2022-08-14T11:18:50.875Z,48.22
2022-08-14T11:21:23.016Z,46.17
2022-08-14T11:23:53.423Z,47.00
2022-08-14T11:26:22.724Z,47.37
2022-08-14T11:28:51.089Z,48.35
2022-08-14T11:31:21.890Z,48.12
2022-08-14T11:33:57.909Z,50.18
2022-08-14T11:36:35.375Z,49.21
2022-08-14T11:39:33.782Z,49.68
2022-08-14T11:42:58.572Z,49.17
2022-08-14T11:45:04.677Z,48.43
2022-08-14T11:47:44.092Z,48.88
2022-08-14T11:50:36.205Z,48.99
2022-08-14T11:53:28.650Z,48.56
2022-08-14T11:56:06.161Z,48.37
2022-08-14T11:58:34.442Z,48.92
2022-08-14T12:01:10.745Z,49.44
2022-08-14T12:03:51.459Z,48.77
2022-08-14T12:06:29.064Z,49.89
2022-08-14T12:09:08.785Z,49.71
2022-08-14T12:11:43.935Z,49.51
2022-08-14T12:14:31.186Z,49.64
2022-08-14T12:17:11.767Z,50.12
2022-08-14T12:19:46.124Z,49.41
2022-08-14T12:22:29.527Z,48.35
2022-08-14T12:24:57.287Z,47.98
2022-08-14T12:27:52.733Z,49.52
2022-08-14T12:30:42.451Z,51.34
2022-08-14T12:33:31.171Z,53.65
2022-08-14T12:36:06.503Z,56.50
2022-08-14T12:38:41.250Z,58.42
2022-08-14T12:41:21.311Z,60.03
2022-08-14T12:43:59.675Z,61.01
2022-08-14T12:46:35.871Z,61.45
2022-08-14T12:49:25.867Z,61.78
2022-08-14T12:51:57.959Z,64.26
2022-08-14T12:54:28.455Z,67.15
2022-08-14T12:57:19.791Z,69.65
2022-08-14T12:59:49.573Z,71.32
2022-08-14T13:02:26.167Z,72.77
2022-08-14T13:04:55.770Z,73.21
2022-08-14T13:07:24.167Z,72.76
2022-08-14T13:09:55.696Z,74.85
2022-08-14T13:12:32.451Z,74.58
2022-08-14T13:15:08.757Z,75.05
2022-08-14T13:17:45.559Z,75.92
2022-08-14T13:20:24.666Z,74.40
2022-08-14T13:22:56.213Z,74.03
2022-08-14T13:25:27.641Z,72.77
2022-08-14T13:27:57.657Z,71.98
2022-08-14T13:30:25.794Z,70.98
2022-08-14T13:32:54.579Z,74.11
2022-08-14T13:35:24.723Z,75.21
2022-08-14T13:37:53.671Z,76.82
2022-08-14T13:40:26.275Z,80.48
2022-08-14T13:42:56.765Z,81.91
2022-08-14T13:45:24.189Z,83.95
2022-08-14T13:48:00.274Z,86.45
2022-08-14T13:50:27.102Z,90.29
2022-08-14T13:52:55.061Z,90.97
2022-08-14T13:55:41.158Z,93.60
2022-08-14T13:58:33.533Z,96.93
2022-08-14T14:01:01.410Z,100.00
2022-08-14T14:03:30.517Z,100.00
2022-08-14T14:06:00.114Z,100.00
2022-08-14T14:08:46.001Z,100.00
2022-08-14T14:11:16.082Z,100.00
2022-08-14T14:13:48.322Z,100.00
2022-08-14T14:16:26.323Z,100.00
2022-08-14T14:19:08.812Z,100.00
2022-08-14T14:21:40.714Z,100.00
2022-08-14T14:24:15.056Z,100.00
2022-08-14T14:26:49.977Z,100.00
2022-08-14T14:29:19.282Z,100.00
2022-08-14T14:31:53.167Z,100.00
2022-08-14T14:34:29.540Z,100.00
2022-08-14T14:37:02.789Z,100.00
2022-08-14T14:39:37.405Z,100.00
2022-08-14T14:42:06.539Z,100.00
2022-08-14T14:44:35.895Z,100.00
2022-08-14T14:47:03.008Z,100.00
2022-08-14T14:49:51.617Z,96.84
2022-08-14T14:52:27.894Z,91.51
2022-08-14T14:54:57.621Z,94.38
2022-08-14T14:57:35.364Z,93.47
2022-08-14T15:00:05.620Z,89.59
2022-08-14T15:02:34.857Z,90.03
2022-08-14T15:05:05.584Z,88.04
2022-08-14T15:07:33.120Z,83.40
2022-08-14T15:10:00.363Z,82.39
2022-08-14T15:12:34.262Z,76.13
2022-08-14T15:15:08.925Z,77.67
2022-08-14T15:17:40.975Z,72.66
2022-08-14T15:20:16.854Z,72.87
2022-08-14T15:22:51.261Z,74.43
2022-08-14T15:25:18.774Z,77.80
2022-08-14T15:27:50.131Z,77.46
2022-08-14T15:30:23.802Z,80.63
2022-08-14T15:32:53.195Z,78.57
2022-08-14T15:35:22.753Z,76.00
2022-08-14T15:37:55.497Z,74.46
2022-08-14T15:40:23.449Z,79.01
2022-08-14T15:42:50.067Z,77.19
2022-08-14T15:45:17.303Z,79.25
2022-08-14T15:47:44.136Z,82.55
2022-08-14T15:50:13.043Z,79.33
2022-08-14T15:52:43.255Z,81.37
2022-08-14T15:55:14.691Z,83.50
2022-08-14T15:58:01.980Z,81.16
2022-08-14T16:00:51.607Z,75.34
2022-08-14T16:03:27.400Z,73.71
2022-08-14T16:06:10.713Z,71.10
2022-08-14T16:08:41.617Z,65.62
2022-08-14T16:11:09.864Z,65.07
2022-08-14T16:13:47.599Z,63.22
2022-08-14T16:16:47.379Z,63.83
2022-08-14T16:19:16.277Z,62.55
2022-08-14T16:22:01.351Z,61.90
2022-08-14T16:24:33.293Z,63.43
2022-08-14T16:27:01.383Z,63.84
2022-08-14T16:29:31.465Z,62.28
2022-08-14T16:32:01.592Z,59.94
2022-08-14T16:34:46.736Z,61.60
2022-08-14T16:37:16.727Z,60.45
2022-08-14T16:39:44.175Z,60.90
2022-08-14T16:43:02.843Z,60.02
2022-08-14T16:45:02.043Z,62.96
2022-08-14T16:47:35.233Z,60.03
2022-08-14T16:50:08.427Z,61.21
2022-08-14T16:52:43.917Z,59.82
2022-08-14T16:55:22.467Z,61.24
2022-08-14T16:57:58.865Z,61.38
2022-08-14T17:00:32.669Z,61.24
2022-08-14T17:03:11.691Z,60.98
2022-08-14T17:05:46.993Z,62.09
2022-08-14T17:08:32.712Z,63.65
2022-08-14T17:11:11.168Z,63.80
2022-08-14T17:13:57.913Z,64.39
2022-08-14T17:16:35.542Z,67.45
2022-08-14T17:19:04.817Z,65.63
2022-08-14T17:21:41.120Z,66.62
2022-08-14T17:24:56.986Z,66.34
2022-08-14T17:27:04.045Z,65.37
2022-08-14T17:29:34.339Z,67.44
2022-08-14T17:32:22.505Z,66.33
2022-08-14T17:34:57.680Z,67.05
2022-08-14T17:37:36.249Z,68.59
2022-08-14T17:40:20.834Z,69.81
2022-08-14T17:42:51.496Z,71.88
2022-08-14T17:45:41.179Z,72.55
2022-08-14T17:49:09.988Z,72.42
2022-08-14T17:51:14.252Z,75.43
2022-08-14T17:53:53.569Z,77.50
2022-08-14T17:56:30.908Z,81.34
2022-08-14T17:59:05.640Z,78.72
2022-08-14T18:01:37.389Z,72.65
2022-08-14T18:04:24.366Z,72.40
2022-08-14T18:06:58.604Z,66.74
2022-08-14T18:09:40.075Z,64.42
2022-08-14T18:12:37.043Z,66.49
2022-08-14T18:15:16.807Z,68.12
2022-08-14T18:17:53.063Z,70.13
2022-08-14T18:21:40.163Z,72.55
2022-08-14T18:23:16.193Z,73.92
2022-08-14T18:25:50.483Z,74.00
2022-08-14T18:28:47.826Z,75.55
2022-08-14T18:31:42.326Z,76.32
2022-08-14T18:34:32.087Z,77.60
2022-08-14T18:37:14.280Z,78.49
2022-08-14T18:40:01.266Z,78.64
2022-08-14T18:42:30.545Z,77.67
2022-08-14T18:45:01.191Z,77.13
2022-08-14T18:48:03.299Z,78.51
2022-08-14T18:50:27.041Z,79.28
2022-08-14T18:53:09.040Z,79.96
2022-08-14T18:55:35.678Z,79.83
2022-08-14T18:58:02.618Z,79.29
2022-08-14T19:00:39.783Z,79.92
2022-08-14T19:03:08.126Z,81.20
2022-08-14T19:05:37.658Z,82.99
2022-08-14T19:08:27.003Z,85.52
2022-08-14T19:11:04.222Z,86.92
2022-08-14T19:13:48.630Z,87.06
2022-08-14T19:16:22.979Z,86.90
2022-08-14T19:19:00.070Z,87.02
2022-08-14T19:21:44.489Z,87.63
2022-08-14T19:24:27.244Z,87.32
2022-08-14T19:27:23.589Z,88.18
2022-08-14T19:30:20.546Z,88.85
2022-08-14T19:32:51.113Z,89.11
2022-08-14T19:35:20.070Z,88.62
2022-08-14T19:37:52.510Z,88.73
2022-08-14T19:40:42.053Z,88.15
2022-08-14T19:43:10.417Z,88.91
2022-08-14T19:45:38.634Z,88.88
2022-08-14T19:48:46.811Z,85.26
2022-08-14T19:51:24.378Z,84.28
2022-08-14T19:54:13.211Z,84.99
2022-08-14T19:56:45.285Z,85.23
2022-08-14T19:59:18.127Z,85.64
2022-08-14T20:01:50.355Z,87.29
2022-08-14T20:04:47.606Z,88.19
2022-08-14T20:07:27.193Z,89.58
2022-08-14T20:11:04.859Z,90.12
2022-08-14T20:13:23.586Z,90.98
2022-08-14T20:18:50.267Z,93.29
2022-08-14T20:21:18.466Z,93.47
2022-08-14T20:23:49.953Z,93.86
2022-08-14T20:26:31.568Z,92.92
2022-08-14T20:29:04.540Z,92.02
2022-08-14T20:31:37.075Z,91.43
2022-08-14T20:34:18.775Z,91.81
2022-08-14T20:37:01.739Z,91.82
2022-08-14T20:39:34.369Z,91.21
2022-08-14T20:42:30.218Z,90.86
2022-08-14T20:45:18.991Z,91.02
2022-08-14T20:47:58.475Z,91.94
2022-08-14T20:50:29.653Z,93.07
2022-08-14T20:52:58.360Z,93.11
2022-08-14T20:55:29.067Z,92.95
2022-08-14T20:57:57.807Z,92.31
2022-08-14T21:00:51.683Z,92.27
2022-08-14T21:03:56.751Z,92.99
2022-08-14T21:07:23.539Z,94.20
2022-08-14T21:09:21.204Z,95.26
2022-08-14T21:12:08.041Z,95.33
2022-08-14T21:14:55.008Z,95.66
2022-08-14T21:17:25.272Z,96.49
2022-08-14T21:19:53.303Z,96.02
2022-08-14T21:22:19.939Z,95.98
2022-08-14T21:24:48.624Z,97.21
2022-08-14T21:27:19.771Z,98.42
2022-08-14T21:29:55.651Z,99.11
2022-08-14T21:32:34.610Z,99.22
2022-08-14T21:35:08.457Z,99.13
2022-08-14T21:37:43.993Z,99.27
2022-08-14T21:40:40.907Z,98.93
2022-08-14T21:43:00.434Z,95.94
2022-08-14T21:45:27.082Z,96.78
2022-08-14T21:47:56.408Z,97.92
2022-08-14T21:50:39.487Z,98.57
2022-08-14T21:53:12.928Z,99.68
2022-08-14T21:55:42.475Z,100.00
2022-08-14T21:58:53.806Z,100.00
2022-08-14T22:00:57.285Z,100.00
2022-08-14T22:03:24.488Z,100.00
2022-08-14T22:05:55.093Z,100.00
2022-08-14T22:08:26.663Z,100.00
2022-08-14T22:10:54.655Z,100.00
2022-08-14T22:13:26.515Z,100.00
2022-08-14T22:15:59.700Z,99.50
2022-08-14T22:18:29.857Z,100.00
2022-08-14T22:20:57.749Z,100.00
2022-08-14T22:23:25.720Z,100.00
2022-08-14T22:25:53.575Z,100.00
2022-08-14T22:28:25.285Z,100.00
2022-08-14T22:30:54.963Z,100.00
2022-08-14T22:33:26.658Z,100.00
2022-08-14T22:35:57.909Z,100.00
2022-08-14T22:38:37.954Z,99.63
2022-08-14T22:41:27.881Z,100.00
2022-08-14T22:43:59.678Z,100.00
2022-08-14T22:46:27.050Z,100.00
2022-08-14T22:48:54.290Z,100.00
2022-08-14T22:51:26.070Z,100.00
2022-08-14T22:53:56.168Z,100.00
2022-08-14T22:56:29.346Z,99.71
2022-08-14T22:58:57.880Z,100.00
2022-08-14T23:01:55.744Z,99.47
2022-08-14T23:04:34.204Z,100.00
2022-08-14T23:07:05.253Z,100.00
2022-08-14T23:09:38.160Z,100.00
2022-08-14T23:12:28.036Z,100.00
2022-08-14T23:14:54.474Z,100.00
2022-08-14T23:17:24.779Z,100.00
2022-08-14T23:19:56.585Z,100.00
2022-08-14T23:22:26.195Z,100.00
2022-08-14T23:24:56.819Z,100.00
2022-08-14T23:28:02.452Z,100.00
2022-08-14T23:30:34.652Z,100.00
2022-08-14T23:33:02.610Z,100.00
2022-08-14T23:35:34.393Z,100.00
2022-08-14T23:38:05.549Z,100.00
2022-08-14T23:40:33.489Z,100.00
2022-08-14T23:43:04.690Z,100.00
2022-08-14T23:45:37.072Z,100.00
2022-08-14T23:48:04.179Z,99.64
2022-08-14T23:50:34.629Z,97.52
2022-08-14T23:53:28.586Z,96.86
2022-08-14T23:56:20.055Z,96.86
2022-08-14T23:58:59.078Z,99.40
